sensor_id;sensor_type;location;lat;lon;timestamp;pressure;altitude;pressure_sealevel;temperature;humidity
71907;BME280;59781;52.090;5.030;2023-06-19T00:00:10;100705.53;;;22.87;90.30
71907;BME280;59781;52.090;5.030;2023-06-19T00:02:42;100711.00;;;23.09;89.56
71907;BME280;59781;52.090;5.030;2023-06-19T00:05:09;100707.41;;;23.31;89.49
71907;BME280;59781;52.090;5.030;2023-06-19T00:07:37;100703.06;;;22.69;93.10
71907;BME280;59781;52.090;5.030;2023-06-19T00:10:04;100717.97;;;22.95;92.84
71907;BME280;59781;52.090;5.030;2023-06-19T00:12:30;100714.16;;;22.96;93.05
71907;BME280;59781;52.090;5.030;2023-06-19T00:14:56;100718.34;;;22.82;94.57
71907;BME280;59781;52.090;5.030;2023-06-19T00:17:22;100717.69;;;22.75;95.70
71907;BME280;59781;52.090;5.030;2023-06-19T00:19:52;100712.59;;;22.83;96.51
71907;BME280;59781;52.090;5.030;2023-06-19T00:22:18;100711.78;;;22.44;99.20
71907;BME280;59781;52.090;5.030;2023-06-19T00:24:44;100713.22;;;22.69;99.27
71907;BME280;59781;52.090;5.030;2023-06-19T00:27:10;100710.41;;;22.64;100.00
71907;BME280;59781;52.090;5.030;2023-06-19T00:29:36;100712.22;;;22.36;100.00
71907;BME280;59781;52.090;5.030;2023-06-19T00:32:02;100714.56;;;22.27;100.00
71907;BME280;59781;52.090;5.030;2023-06-19T00:34:29;100718.13;;;22.28;100.00
71907;BME280;59781;52.090;5.030;2023-06-19T00:36:58;100724.69;;;22.27;100.00
71907;BME280;59781;52.090;5.030;2023-06-19T00:39:24;100730.66;;;22.41;100.00
71907;BME280;59781;52.090;5.030;2023-06-19T00:41:54;100736.19;;;22.24;100.00
71907;BME280;59781;52.090;5.030;2023-06-19T00:44:21;100727.00;;;22.52;100.00
71907;BME280;59781;52.090;5.030;2023-06-19T00:46:51;100728.53;;;22.09;100.00
71907;BME280;59781;52.090;5.030;2023-06-19T00:49:24;100721.75;;;21.66;100.00
71907;BME280;59781;52.090;5.030;2023-06-19T00:51:52;100725.78;;;21.47;100.00
71907;BME280;59781;52.090;5.030;2023-06-19T00:54:19;100736.66;;;21.87;100.00
71907;BME280;59781;52.090;5.030;2023-06-19T00:56:45;100727.94;;;21.73;100.00
71907;BME280;59781;52.090;5.030;2023-06-19T00:59:16;100734.34;;;21.51;100.00
71907;BME280;59781;52.090;5.030;2023-06-19T01:01:44;100740.84;;;21.33;100.00
71907;BME280;59781;52.090;5.030;2023-06-19T01:04:12;100753.53;;;21.10;100.00
71907;BME280;59781;52.090;5.030;2023-06-19T01:06:53;100760.91;;;21.10;100.00
71907;BME280;59781;52.090;5.030;2023-06-19T01:09:29;100763.53;;;21.16;100.00
71907;BME280;59781;52.090;5.030;2023-06-19T01:12:20;100765.97;;;20.89;100.00
71907;BME280;59781;52.090;5.030;2023-06-19T01:14:59;100762.66;;;20.87;100.00
71907;BME280;59781;52.090;5.030;2023-06-19T01:17:29;100778.88;;;21.17;100.00
71907;BME280;59781;52.090;5.030;2023-06-19T01:19:58;100772.75;;;20.87;100.00
71907;BME280;59781;52.090;5.030;2023-06-19T01:24:53;100785.34;;;21.00;100.00
71907;BME280;59781;52.090;5.030;2023-06-19T01:27:20;100772.53;;;20.77;100.00
71907;BME280;59781;52.090;5.030;2023-06-19T01:29:47;100764.69;;;21.32;100.00
71907;BME280;59781;52.090;5.030;2023-06-19T01:32:18;100765.28;;;21.34;100.00
71907;BME280;59781;52.090;5.030;2023-06-19T01:34:52;100775.75;;;20.85;100.00
71907;BME280;59781;52.090;5.030;2023-06-19T01:37:25;100775.22;;;21.00;100.00
71907;BME280;59781;52.090;5.030;2023-06-19T01:39:56;100771.06;;;20.98;100.00
71907;BME280;59781;52.090;5.030;2023-06-19T01:42:26;100768.72;;;20.78;100.00
71907;BME280;59781;52.090;5.030;2023-06-19T01:44:53;100782.38;;;21.01;100.00
71907;BME280;59781;52.090;5.030;2023-06-19T01:47:19;100773.47;;;20.82;100.00
71907;BME280;59781;52.090;5.030;2023-06-19T01:49:47;100782.50;;;21.06;100.00
71907;BME280;59781;52.090;5.030;2023-06-19T01:52:13;100777.41;;;20.86;100.00
71907;BME280;59781;52.090;5.030;2023-06-19T01:54:39;100777.88;;;20.72;100.00
71907;BME280;59781;52.090;5.030;2023-06-19T01:57:05;100773.16;;;20.67;100.00
71907;BME280;59781;52.090;5.030;2023-06-19T01:59:31;100777.53;;;20.68;100.00
71907;BME280;59781;52.090;5.030;2023-06-19T02:01:57;100776.47;;;20.69;100.00
71907;BME280;59781;52.090;5.030;2023-06-19T02:04:23;100779.69;;;20.54;100.00
71907;BME280;59781;52.090;5.030;2023-06-19T02:06:48;100777.91;;;20.60;100.00
71907;BME280;59781;52.090;5.030;2023-06-19T02:09:14;100783.88;;;20.45;100.00
71907;BME280;59781;52.090;5.030;2023-06-19T02:11:40;100782.19;;;20.68;100.00
71907;BME280;59781;52.090;5.030;2023-06-19T02:14:06;100786.34;;;20.70;100.00
71907;BME280;59781;52.090;5.030;2023-06-19T02:16:31;100791.09;;;20.86;100.00
71907;BME280;59781;52.090;5.030;2023-06-19T02:18:57;100786.94;;;20.72;100.00
71907;BME280;59781;52.090;5.030;2023-06-19T02:21:23;100794.91;;;20.85;100.00
71907;BME280;59781;52.090;5.030;2023-06-19T02:23:50;100777.91;;;20.60;100.00
71907;BME280;59781;52.090;5.030;2023-06-19T02:26:16;100793.59;;;20.65;100.00
71907;BME280;59781;52.090;5.030;2023-06-19T02:28:42;100790.84;;;20.65;100.00
71907;BME280;59781;52.090;5.030;2023-06-19T02:31:07;100791.59;;;20.60;100.00
71907;BME280;59781;52.090;5.030;2023-06-19T02:33:33;100793.75;;;20.58;100.00
71907;BME280;59781;52.090;5.030;2023-06-19T02:35:59;100791.69;;;20.53;100.00
71907;BME280;59781;52.090;5.030;2023-06-19T02:38:25;100794.41;;;20.88;100.00
71907;BME280;59781;52.090;5.030;2023-06-19T02:40:52;100794.06;;;20.61;100.00
71907;BME280;59781;52.090;5.030;2023-06-19T02:43:17;100789.66;;;20.84;100.00
71907;BME280;59781;52.090;5.030;2023-06-19T02:45:43;100805.63;;;20.75;100.00
71907;BME280;59781;52.090;5.030;2023-06-19T02:48:09;100799.31;;;20.75;100.00
71907;BME280;59781;52.090;5.030;2023-06-19T02:50:35;100806.94;;;20.61;100.00
71907;BME280;59781;52.090;5.030;2023-06-19T02:53:01;100805.25;;;20.60;100.00
71907;BME280;59781;52.090;5.030;2023-06-19T02:55:26;100816.81;;;20.50;100.00
71907;BME280;59781;52.090;5.030;2023-06-19T02:57:52;100800.88;;;20.47;100.00
71907;BME280;59781;52.090;5.030;2023-06-19T03:00:19;100812.50;;;20.54;100.00
71907;BME280;59781;52.090;5.030;2023-06-19T03:02:45;100817.63;;;20.51;100.00
71907;BME280;59781;52.090;5.030;2023-06-19T03:05:13;100822.16;;;20.45;100.00
71907;BME280;59781;52.090;5.030;2023-06-19T03:07:43;100824.97;;;20.27;100.00
71907;BME280;59781;52.090;5.030;2023-06-19T03:10:08;100825.31;;;20.19;100.00
71907;BME280;59781;52.090;5.030;2023-06-19T03:12:34;100824.16;;;20.38;100.00
71907;BME280;59781;52.090;5.030;2023-06-19T03:15:00;100834.84;;;20.40;100.00
71907;BME280;59781;52.090;5.030;2023-06-19T03:17:29;100837.56;;;20.28;100.00
71907;BME280;59781;52.090;5.030;2023-06-19T03:19:55;100829.03;;;20.36;100.00
71907;BME280;59781;52.090;5.030;2023-06-19T03:22:21;100841.38;;;20.27;100.00
71907;BME280;59781;52.090;5.030;2023-06-19T03:24:47;100833.75;;;20.29;100.00
71907;BME280;59781;52.090;5.030;2023-06-19T03:27:18;100838.50;;;20.22;100.00
71907;BME280;59781;52.090;5.030;2023-06-19T03:29:43;100834.66;;;20.11;100.00
71907;BME280;59781;52.090;5.030;2023-06-19T03:32:12;100843.28;;;20.26;100.00
71907;BME280;59781;52.090;5.030;2023-06-19T03:34:40;100837.97;;;20.01;100.00
71907;BME280;59781;52.090;5.030;2023-06-19T03:37:07;100853.84;;;20.34;100.00
71907;BME280;59781;52.090;5.030;2023-06-19T03:39:34;100857.94;;;20.02;100.00
71907;BME280;59781;52.090;5.030;2023-06-19T03:42:07;100853.97;;;20.28;100.00
71907;BME280;59781;52.090;5.030;2023-06-19T03:44:34;100864.47;;;20.01;100.00
71907;BME280;59781;52.090;5.030;2023-06-19T03:47:00;100870.94;;;20.07;100.00
71907;BME280;59781;52.090;5.030;2023-06-19T03:49:25;100865.91;;;20.03;100.00
71907;BME280;59781;52.090;5.030;2023-06-19T03:51:53;100871.56;;;19.90;100.00
71907;BME280;59781;52.090;5.030;2023-06-19T03:54:20;100885.88;;;20.04;100.00
71907;BME280;59781;52.090;5.030;2023-06-19T03:56:46;100894.41;;;19.96;100.00
71907;BME280;59781;52.090;5.030;2023-06-19T03:59:11;100899.97;;;19.89;100.00
71907;BME280;59781;52.090;5.030;2023-06-19T04:01:37;100882.69;;;20.07;100.00
71907;BME280;59781;52.090;5.030;2023-06-19T04:04:03;100895.84;;;19.98;100.00
71907;BME280;59781;52.090;5.030;2023-06-19T04:06:29;100899.69;;;20.09;100.00
71907;BME280;59781;52.090;5.030;2023-06-19T04:08:54;100888.72;;;19.97;100.00
71907;BME280;59781;52.090;5.030;2023-06-19T04:11:22;100906.00;;;20.10;100.00
71907;BME280;59781;52.090;5.030;2023-06-19T04:13:48;100901.44;;;20.03;100.00
71907;BME280;59781;52.090;5.030;2023-06-19T04:16:13;100909.00;;;19.90;100.00
71907;BME280;59781;52.090;5.030;2023-06-19T04:18:41;100912.84;;;19.70;100.00
71907;BME280;59781;52.090;5.030;2023-06-19T04:21:06;100913.88;;;20.18;100.00
71907;BME280;59781;52.090;5.030;2023-06-19T04:23:32;100921.44;;;19.86;100.00
71907;BME280;59781;52.090;5.030;2023-06-19T04:25:58;100922.47;;;19.73;100.00
71907;BME280;59781;52.090;5.030;2023-06-19T04:28:24;100929.44;;;19.51;100.00
71907;BME280;59781;52.090;5.030;2023-06-19T04:30:51;100930.81;;;19.78;100.00
71907;BME280;59781;52.090;5.030;2023-06-19T04:33:27;100931.56;;;19.85;100.00
71907;BME280;59781;52.090;5.030;2023-06-19T04:35:54;100948.59;;;19.87;100.00
71907;BME280;59781;52.090;5.030;2023-06-19T04:38:19;100950.00;;;19.90;100.00
71907;BME280;59781;52.090;5.030;2023-06-19T04:40:50;100948.28;;;19.77;100.00
71907;BME280;59781;52.090;5.030;2023-06-19T04:43:16;100955.00;;;19.93;100.00
71907;BME280;59781;52.090;5.030;2023-06-19T04:45:42;100951.75;;;19.84;100.00
71907;BME280;59781;52.090;5.030;2023-06-19T04:48:08;100948.72;;;19.74;100.00
71907;BME280;59781;52.090;5.030;2023-06-19T04:50:34;100964.69;;;19.59;100.00
71907;BME280;59781;52.090;5.030;2023-06-19T04:53:00;100967.91;;;19.49;100.00
71907;BME280;59781;52.090;5.030;2023-06-19T04:55:26;100960.00;;;19.96;100.00
71907;BME280;59781;52.090;5.030;2023-06-19T04:57:52;100963.38;;;19.61;100.00
71907;BME280;59781;52.090;5.030;2023-06-19T05:00:18;100965.53;;;19.59;100.00
71907;BME280;59781;52.090;5.030;2023-06-19T05:02:47;100968.91;;;19.73;100.00
71907;BME280;59781;52.090;5.030;2023-06-19T05:05:13;100968.03;;;19.61;100.00
71907;BME280;59781;52.090;5.030;2023-06-19T05:07:40;100977.59;;;19.70;100.00
71907;BME280;59781;52.090;5.030;2023-06-19T05:10:07;100975.91;;;19.69;100.00
71907;BME280;59781;52.090;5.030;2023-06-19T05:12:35;100982.53;;;19.36;100.00
71907;BME280;59781;52.090;5.030;2023-06-19T05:15:01;100980.97;;;19.47;100.00
71907;BME280;59781;52.090;5.030;2023-06-19T05:17:27;100977.31;;;19.53;100.00
71907;BME280;59781;52.090;5.030;2023-06-19T05:19:52;100992.31;;;19.44;100.00
71907;BME280;59781;52.090;5.030;2023-06-19T05:22:18;101000.59;;;19.37;100.00
71907;BME280;59781;52.090;5.030;2023-06-19T05:24:44;101003.78;;;19.34;100.00
71907;BME280;59781;52.090;5.030;2023-06-19T05:27:10;101005.56;;;19.47;100.00
71907;BME280;59781;52.090;5.030;2023-06-19T05:29:36;100999.09;;;19.41;100.00
71907;BME280;59781;52.090;5.030;2023-06-19T05:32:02;100987.69;;;19.69;100.00
71907;BME280;59781;52.090;5.030;2023-06-19T05:34:27;101004.50;;;19.66;100.00
71907;BME280;59781;52.090;5.030;2023-06-19T05:36:53;101005.97;;;19.44;100.00
71907;BME280;59781;52.090;5.030;2023-06-19T05:39:19;101009.97;;;19.48;100.00
71907;BME280;59781;52.090;5.030;2023-06-19T05:41:44;101005.06;;;19.32;100.00
71907;BME280;59781;52.090;5.030;2023-06-19T05:44:13;101004.38;;;19.61;100.00
71907;BME280;59781;52.090;5.030;2023-06-19T05:46:42;101016.41;;;19.54;100.00
71907;BME280;59781;52.090;5.030;2023-06-19T05:49:08;101015.16;;;19.74;100.00
71907;BME280;59781;52.090;5.030;2023-06-19T05:51:34;101021.59;;;19.62;100.00
71907;BME280;59781;52.090;5.030;2023-06-19T05:53:59;101012.28;;;19.44;100.00
71907;BME280;59781;52.090;5.030;2023-06-19T05:56:32;101022.44;;;19.62;100.00
71907;BME280;59781;52.090;5.030;2023-06-19T05:58:59;101021.69;;;19.73;100.00
71907;BME280;59781;52.090;5.030;2023-06-19T06:01:26;101027.91;;;19.62;100.00
71907;BME280;59781;52.090;5.030;2023-06-19T06:03:55;101019.19;;;19.72;100.00
71907;BME280;59781;52.090;5.030;2023-06-19T06:06:25;101021.16;;;19.83;100.00
71907;BME280;59781;52.090;5.030;2023-06-19T06:08:51;101017.53;;;19.89;100.00
71907;BME280;59781;52.090;5.030;2023-06-19T06:11:17;101021.91;;;19.90;100.00
71907;BME280;59781;52.090;5.030;2023-06-19T06:13:44;101027.75;;;19.75;100.00
71907;BME280;59781;52.090;5.030;2023-06-19T06:16:09;101039.75;;;20.11;100.00
71907;BME280;59781;52.090;5.030;2023-06-19T06:18:35;101038.84;;;19.99;100.00
71907;BME280;59781;52.090;5.030;2023-06-19T06:21:01;101046.59;;;19.84;100.00
71907;BME280;59781;52.090;5.030;2023-06-19T06:23:27;101057.81;;;20.30;100.00
71907;BME280;59781;52.090;5.030;2023-06-19T06:25:52;101060.56;;;20.12;100.00
71907;BME280;59781;52.090;5.030;2023-06-19T06:28:19;101062.44;;;19.93;100.00
71907;BME280;59781;52.090;5.030;2023-06-19T06:30:45;101057.38;;;19.97;100.00
71907;BME280;59781;52.090;5.030;2023-06-19T06:33:11;101065.41;;;19.73;100.00
71907;BME280;59781;52.090;5.030;2023-06-19T06:35:37;101068.38;;;19.90;100.00
71907;BME280;59781;52.090;5.030;2023-06-19T06:38:02;101070.72;;;20.05;100.00
71907;BME280;59781;52.090;5.030;2023-06-19T06:40:28;101066.94;;;19.88;100.00
71907;BME280;59781;52.090;5.030;2023-06-19T06:42:54;101084.47;;;19.80;100.00
71907;BME280;59781;52.090;5.030;2023-06-19T06:45:20;101084.03;;;20.20;100.00
71907;BME280;59781;52.090;5.030;2023-06-19T06:47:47;101081.81;;;19.73;100.00
71907;BME280;59781;52.090;5.030;2023-06-19T06:50:13;101085.47;;;20.04;100.00
71907;BME280;59781;52.090;5.030;2023-06-19T06:52:39;101081.84;;;20.10;100.00
71907;BME280;59781;52.090;5.030;2023-06-19T06:55:06;101094.13;;;20.01;100.00
71907;BME280;59781;52.090;5.030;2023-06-19T06:57:32;101097.03;;;20.43;100.00
71907;BME280;59781;52.090;5.030;2023-06-19T06:59:58;101102.34;;;20.19;100.00
71907;BME280;59781;52.090;5.030;2023-06-19T07:02:24;101099.13;;;20.41;100.00
71907;BME280;59781;52.090;5.030;2023-06-19T07:04:49;101100.28;;;20.15;100.00
71907;BME280;59781;52.090;5.030;2023-06-19T07:07:15;101120.13;;;20.10;100.00
71907;BME280;59781;52.090;5.030;2023-06-19T07:09:41;101114.59;;;20.17;100.00
71907;BME280;59781;52.090;5.030;2023-06-19T07:12:07;101121.94;;;20.16;100.00
71907;BME280;59781;52.090;5.030;2023-06-19T07:14:33;101125.53;;;20.17;100.00
71907;BME280;59781;52.090;5.030;2023-06-19T07:16:58;101132.06;;;20.82;100.00
71907;BME280;59781;52.090;5.030;2023-06-19T07:19:24;101127.03;;;21.28;100.00
71907;BME280;59781;52.090;5.030;2023-06-19T07:21:50;101127.94;;;20.61;100.00
71907;BME280;59781;52.090;5.030;2023-06-19T07:24:17;101132.81;;;21.19;100.00
71907;BME280;59781;52.090;5.030;2023-06-19T07:26:42;101141.81;;;21.08;100.00
71907;BME280;59781;52.090;5.030;2023-06-19T07:29:08;101129.91;;;20.73;100.00
71907;BME280;59781;52.090;5.030;2023-06-19T07:31:34;101138.19;;;20.29;100.00
71907;BME280;59781;52.090;5.030;2023-06-19T07:33:59;101132.78;;;20.41;100.00
71907;BME280;59781;52.090;5.030;2023-06-19T07:36:25;101139.94;;;20.79;100.00
71907;BME280;59781;52.090;5.030;2023-06-19T07:38:52;101133.72;;;21.13;100.00
71907;BME280;59781;52.090;5.030;2023-06-19T07:41:18;101140.56;;;20.92;100.00
71907;BME280;59781;52.090;5.030;2023-06-19T07:43:44;101140.97;;;20.96;100.00
71907;BME280;59781;52.090;5.030;2023-06-19T07:46:09;101151.94;;;21.08;100.00
71907;BME280;59781;52.090;5.030;2023-06-19T07:48:36;101145.38;;;20.97;100.00
71907;BME280;59781;52.090;5.030;2023-06-19T07:51:01;101150.03;;;20.78;100.00
71907;BME280;59781;52.090;5.030;2023-06-19T07:53:27;101152.06;;;21.13;100.00
71907;BME280;59781;52.090;5.030;2023-06-19T07:55:53;101155.53;;;20.78;100.00
71907;BME280;59781;52.090;5.030;2023-06-19T07:58:18;101147.91;;;20.80;100.00
71907;BME280;59781;52.090;5.030;2023-06-19T08:00:44;101155.59;;;21.32;100.00
71907;BME280;59781;52.090;5.030;2023-06-19T08:03:10;101160.00;;;21.03;100.00
71907;BME280;59781;52.090;5.030;2023-06-19T08:05:35;101162.25;;;21.89;100.00
71907;BME280;59781;52.090;5.030;2023-06-19T08:08:01;101161.75;;;21.57;100.00
71907;BME280;59781;52.090;5.030;2023-06-19T08:10:27;101152.69;;;21.45;100.00
71907;BME280;59781;52.090;5.030;2023-06-19T08:12:53;101156.41;;;21.74;100.00
71907;BME280;59781;52.090;5.030;2023-06-19T08:15:19;101159.34;;;21.37;100.00
71907;BME280;59781;52.090;5.030;2023-06-19T08:17:45;101159.25;;;21.67;100.00
71907;BME280;59781;52.090;5.030;2023-06-19T08:20:10;101155.81;;;22.42;100.00
71907;BME280;59781;52.090;5.030;2023-06-19T08:22:36;101154.31;;;22.63;100.00
71907;BME280;59781;52.090;5.030;2023-06-19T08:25:03;101164.88;;;22.31;100.00
71907;BME280;59781;52.090;5.030;2023-06-19T08:27:29;101171.34;;;22.77;100.00
71907;BME280;59781;52.090;5.030;2023-06-19T08:29:55;101174.09;;;22.77;100.00
71907;BME280;59781;52.090;5.030;2023-06-19T08:32:20;101181.78;;;23.32;100.00
71907;BME280;59781;52.090;5.030;2023-06-19T08:34:46;101199.91;;;23.61;100.00
71907;BME280;59781;52.090;5.030;2023-06-19T08:37:12;101189.84;;;23.10;100.00
71907;BME280;59781;52.090;5.030;2023-06-19T08:39:37;101205.31;;;22.47;100.00
71907;BME280;59781;52.090;5.030;2023-06-19T08:42:08;101196.19;;;22.70;100.00
71907;BME280;59781;52.090;5.030;2023-06-19T08:44:35;101199.03;;;22.23;100.00
71907;BME280;59781;52.090;5.030;2023-06-19T08:47:02;101195.88;;;22.31;100.00
71907;BME280;59781;52.090;5.030;2023-06-19T08:49:30;101210.19;;;22.57;100.00
71907;BME280;59781;52.090;5.030;2023-06-19T08:51:56;101212.72;;;22.35;100.00
71907;BME280;59781;52.090;5.030;2023-06-19T08:54:22;101207.19;;;23.56;100.00
71907;BME280;59781;52.090;5.030;2023-06-19T08:56:48;101222.91;;;22.86;100.00
71907;BME280;59781;52.090;5.030;2023-06-19T08:59:17;101215.09;;;22.20;100.00
71907;BME280;59781;52.090;5.030;2023-06-19T09:01:48;101207.09;;;21.95;100.00
71907;BME280;59781;52.090;5.030;2023-06-19T09:04:19;101209.75;;;22.13;100.00
71907;BME280;59781;52.090;5.030;2023-06-19T09:07:03;101210.22;;;22.10;100.00
71907;BME280;59781;52.090;5.030;2023-06-19T09:09:44;101217.50;;;22.28;100.00
71907;BME280;59781;52.090;5.030;2023-06-19T09:12:13;101222.81;;;22.81;100.00
71907;BME280;59781;52.090;5.030;2023-06-19T09:14:44;101216.84;;;23.41;100.00
71907;BME280;59781;52.090;5.030;2023-06-19T09:17:16;101216.97;;;24.30;100.00
71907;BME280;59781;52.090;5.030;2023-06-19T09:19:51;101224.75;;;23.83;100.00
71907;BME280;59781;52.090;5.030;2023-06-19T09:22:22;101221.50;;;24.03;100.00
71907;BME280;59781;52.090;5.030;2023-06-19T09:24:48;101231.16;;;24.06;100.00
71907;BME280;59781;52.090;5.030;2023-06-19T09:27:19;101236.34;;;23.85;100.00
71907;BME280;59781;52.090;5.030;2023-06-19T09:29:50;101244.44;;;23.92;100.00
71907;BME280;59781;52.090;5.030;2023-06-19T09:32:17;101241.59;;;24.20;100.00
71907;BME280;59781;52.090;5.030;2023-06-19T09:34:48;101257.44;;;24.13;100.00
71907;BME280;59781;52.090;5.030;2023-06-19T09:37:23;101260.00;;;23.41;100.00
71907;BME280;59781;52.090;5.030;2023-06-19T09:39:56;101252.75;;;22.71;100.00
71907;BME280;59781;52.090;5.030;2023-06-19T09:42:33;101261.53;;;23.08;100.00
71907;BME280;59781;52.090;5.030;2023-06-19T09:45:12;101261.34;;;22.98;100.00
71907;BME280;59781;52.090;5.030;2023-06-19T09:47:45;101264.50;;;22.43;100.00
71907;BME280;59781;52.090;5.030;2023-06-19T09:50:13;101279.53;;;22.17;100.00
71907;BME280;59781;52.090;5.030;2023-06-19T09:52:42;101289.03;;;23.37;100.00
71907;BME280;59781;52.090;5.030;2023-06-19T09:55:11;101273.38;;;24.11;100.00
71907;BME280;59781;52.090;5.030;2023-06-19T09:57:43;101283.13;;;24.52;100.00
71907;BME280;59781;52.090;5.030;2023-06-19T10:00:11;101274.44;;;24.82;100.00
71907;BME280;59781;52.090;5.030;2023-06-19T10:02:46;101282.94;;;25.20;100.00
71907;BME280;59781;52.090;5.030;2023-06-19T10:05:14;101273.06;;;25.51;98.53
71907;BME280;59781;52.090;5.030;2023-06-19T10:07:45;101275.66;;;25.35;98.82
71907;BME280;59781;52.090;5.030;2023-06-19T10:12:49;101265.94;;;25.06;100.00
71907;BME280;59781;52.090;5.030;2023-06-19T10:15:19;101280.63;;;24.51;100.00
71907;BME280;59781;52.090;5.030;2023-06-19T10:17:49;101270.91;;;25.80;99.63
71907;BME280;59781;52.090;5.030;2023-06-19T10:20:37;101269.53;;;25.06;100.00
71907;BME280;59781;52.090;5.030;2023-06-19T10:23:05;101279.19;;;23.98;100.00
71907;BME280;59781;52.090;5.030;2023-06-19T10:25:40;101263.38;;;24.99;100.00
71907;BME280;59781;52.090;5.030;2023-06-19T10:28:31;101276.28;;;24.21;100.00
71907;BME280;59781;52.090;5.030;2023-06-19T10:33:34;101278.59;;;24.46;100.00
71907;BME280;59781;52.090;5.030;2023-06-19T10:36:14;101279.91;;;24.99;97.34
71907;BME280;59781;52.090;5.030;2023-06-19T10:38:41;101265.03;;;26.03;94.66
71907;BME280;59781;52.090;5.030;2023-06-19T10:41:21;101277.63;;;25.13;98.93
71907;BME280;59781;52.090;5.030;2023-06-19T10:46:31;101264.06;;;26.19;94.03
71907;BME280;59781;52.090;5.030;2023-06-19T10:49:00;101274.41;;;25.21;93.01
71907;BME280;59781;52.090;5.030;2023-06-19T10:51:30;101257.63;;;25.50;93.14
71907;BME280;59781;52.090;5.030;2023-06-19T10:53:59;101263.22;;;26.19;94.93
71907;BME280;59781;52.090;5.030;2023-06-19T10:56:25;101273.19;;;27.04;86.27
71907;BME280;59781;52.090;5.030;2023-06-19T10:59:02;101263.28;;;25.65;90.99
71907;BME280;59781;52.090;5.030;2023-06-19T11:01:39;101268.94;;;26.07;93.18
71907;BME280;59781;52.090;5.030;2023-06-19T11:04:08;101258.72;;;25.76;90.07
71907;BME280;59781;52.090;5.030;2023-06-19T11:06:36;101268.03;;;25.42;92.07
71907;BME280;59781;52.090;5.030;2023-06-19T11:09:04;101255.69;;;26.09;92.87
71907;BME280;59781;52.090;5.030;2023-06-19T11:11:35;101259.94;;;26.59;89.42
71907;BME280;59781;52.090;5.030;2023-06-19T11:14:01;101249.31;;;26.41;93.14
71907;BME280;59781;52.090;5.030;2023-06-19T11:16:27;101254.84;;;26.41;88.86
71907;BME280;59781;52.090;5.030;2023-06-19T11:19:00;101245.72;;;26.87;88.48
71907;BME280;59781;52.090;5.030;2023-06-19T11:21:34;101257.81;;;27.49;86.32
71907;BME280;59781;52.090;5.030;2023-06-19T11:24:09;101257.56;;;28.22;82.26
71907;BME280;59781;52.090;5.030;2023-06-19T11:26:38;101254.81;;;28.12;77.74
71907;BME280;59781;52.090;5.030;2023-06-19T11:29:19;101251.50;;;27.99;78.47
71907;BME280;59781;52.090;5.030;2023-06-19T11:31:53;101243.97;;;27.59;78.48
71907;BME280;59781;52.090;5.030;2023-06-19T11:34:36;101263.06;;;25.98;87.69
71907;BME280;59781;52.090;5.030;2023-06-19T11:39:46;101263.94;;;26.94;83.74
71907;BME280;59781;52.090;5.030;2023-06-19T11:42:16;101259.19;;;27.62;80.13
71907;BME280;59781;52.090;5.030;2023-06-19T11:44:54;101268.97;;;26.97;80.08
71907;BME280;59781;52.090;5.030;2023-06-19T11:47:32;101272.19;;;27.51;80.87
71907;BME280;59781;52.090;5.030;2023-06-19T11:49:58;101266.00;;;27.13;81.22
71907;BME280;59781;52.090;5.030;2023-06-19T11:52:26;101267.50;;;26.37;83.87
71907;BME280;59781;52.090;5.030;2023-06-19T11:54:52;101266.41;;;26.80;84.70
71907;BME280;59781;52.090;5.030;2023-06-19T11:57:18;101263.13;;;27.76;81.18
71907;BME280;59781;52.090;5.030;2023-06-19T11:59:43;101268.56;;;26.30;83.48
71907;BME280;59781;52.090;5.030;2023-06-19T12:02:09;101270.34;;;26.10;86.89
71907;BME280;59781;52.090;5.030;2023-06-19T12:04:35;101268.72;;;27.03;84.16
71907;BME280;59781;52.090;5.030;2023-06-19T12:07:02;101265.88;;;28.47;76.38
71907;BME280;59781;52.090;5.030;2023-06-19T12:09:29;101265.84;;;27.46;77.58
71907;BME280;59781;52.090;5.030;2023-06-19T12:11:55;101269.50;;;27.82;77.38
71907;BME280;59781;52.090;5.030;2023-06-19T12:14:21;101267.59;;;29.18;72.50
71907;BME280;59781;52.090;5.030;2023-06-19T12:16:47;101270.91;;;28.35;75.82
71907;BME280;59781;52.090;5.030;2023-06-19T12:19:13;101273.84;;;27.47;78.05
71907;BME280;59781;52.090;5.030;2023-06-19T12:21:39;101264.06;;;26.56;84.48
71907;BME280;59781;52.090;5.030;2023-06-19T12:24:06;101275.59;;;27.89;80.33
71907;BME280;59781;52.090;5.030;2023-06-19T12:26:36;101272.28;;;27.77;77.11
71907;BME280;59781;52.090;5.030;2023-06-19T12:29:02;101274.78;;;27.00;81.58
71907;BME280;59781;52.090;5.030;2023-06-19T12:31:30;101272.25;;;26.41;85.02
71907;BME280;59781;52.090;5.030;2023-06-19T12:33:56;101283.06;;;26.48;88.10
71907;BME280;59781;52.090;5.030;2023-06-19T12:36:22;101281.47;;;26.57;83.23
71907;BME280;59781;52.090;5.030;2023-06-19T12:38:48;101276.72;;;26.47;84.25
71907;BME280;59781;52.090;5.030;2023-06-19T12:41:15;101278.28;;;26.80;80.58
71907;BME280;59781;52.090;5.030;2023-06-19T12:43:40;101284.13;;;26.10;87.38
71907;BME280;59781;52.090;5.030;2023-06-19T12:46:06;101279.53;;;27.05;85.13
71907;BME280;59781;52.090;5.030;2023-06-19T12:48:32;101280.50;;;28.73;74.82
71907;BME280;59781;52.090;5.030;2023-06-19T12:50:58;101284.13;;;28.69;70.96
71907;BME280;59781;52.090;5.030;2023-06-19T12:53:24;101275.47;;;28.96;70.80
71907;BME280;59781;52.090;5.030;2023-06-19T12:55:55;101277.91;;;29.07;70.94
71907;BME280;59781;52.090;5.030;2023-06-19T12:58:22;101272.75;;;29.84;68.33